createdAt,value
2022-10-18T00:01:38.335Z,7.05
2022-10-18T00:04:07.534Z,6.95
2022-10-18T00:06:36.812Z,5.78
2022-10-18T00:09:06.466Z,6.72
2022-10-18T00:11:34.154Z,7.68
2022-10-18T00:14:01.834Z,7.05
2022-10-18T00:16:29.586Z,6.60
2022-10-18T00:18:57.405Z,7.60
2022-10-18T00:21:26.555Z,7.60
2022-10-18T00:23:55.092Z,7.35
2022-10-18T00:26:25.242Z,6.75
2022-10-18T00:28:55.229Z,6.32
2022-10-18T00:31:25.086Z,6.72
2022-10-18T00:33:54.519Z,6.40
2022-10-18T00:36:22.704Z,7.55
2022-10-18T00:38:52.396Z,6.40
2022-10-18T00:41:23.691Z,6.43
2022-10-18T00:43:53.961Z,6.50
2022-10-18T00:46:22.256Z,6.18
2022-10-18T00:48:50.918Z,6.32
2022-10-18T00:51:21.274Z,7.05
2022-10-18T00:53:49.828Z,6.47
2022-10-18T00:56:19.129Z,7.80
2022-10-18T00:58:48.689Z,7.00
2022-10-18T01:01:16.384Z,7.55
2022-10-18T01:03:44.313Z,6.07
2022-10-18T01:06:11.939Z,6.47
2022-10-18T01:08:56.658Z,6.60
2022-10-18T01:11:51.259Z,7.32
2022-10-18T01:14:28.174Z,7.00
2022-10-18T01:17:01.082Z,6.80
2022-10-18T01:20:08.297Z,6.60
2022-10-18T01:22:40.357Z,6.45
2022-10-18T01:25:21.007Z,7.05
2022-10-18T01:27:58.078Z,6.22
2022-10-18T01:30:38.934Z,7.50
2022-10-18T01:33:14.243Z,6.28
2022-10-18T01:35:48.561Z,7.30
2022-10-18T01:38:19.661Z,6.57
2022-10-18T01:40:51.311Z,5.95
2022-10-18T01:43:20.978Z,6.50
2022-10-18T01:45:50.765Z,6.30
2022-10-18T01:48:18.744Z,6.47
2022-10-18T01:50:46.416Z,7.47
2022-10-18T01:53:24.673Z,7.00
2022-10-18T01:56:00.874Z,6.20
2022-10-18T01:58:32.478Z,7.55
2022-10-18T02:01:08.454Z,7.13
2022-10-18T02:03:44.152Z,7.00
2022-10-18T02:06:19.684Z,7.53
2022-10-18T02:08:54.644Z,7.35
2022-10-18T02:11:22.862Z,6.30
2022-10-18T02:13:54.340Z,7.10
2022-10-18T02:16:27.779Z,7.25
2022-10-18T02:19:01.514Z,7.13
2022-10-18T02:21:30.646Z,6.88
2022-10-18T02:24:00.120Z,7.13
2022-10-18T02:26:27.789Z,6.80
2022-10-18T02:28:56.172Z,6.88
2022-10-18T02:31:30.119Z,7.07
2022-10-18T02:34:01.676Z,7.20
2022-10-18T02:36:34.457Z,7.30
2022-10-18T02:39:06.043Z,7.25
2022-10-18T02:41:34.073Z,7.53
2022-10-18T02:44:01.725Z,7.53
2022-10-18T02:46:30.782Z,8.02
2022-10-18T02:48:58.530Z,7.60
2022-10-18T02:51:26.232Z,6.45
2022-10-18T02:53:54.062Z,7.40
2022-10-18T02:56:21.681Z,7.50
2022-10-18T02:58:49.353Z,7.38
2022-10-18T03:01:17.055Z,7.13
2022-10-18T03:03:46.127Z,7.93
2022-10-18T03:06:13.766Z,7.88
2022-10-18T03:08:41.424Z,8.95
2022-10-18T03:11:09.147Z,7.65
2022-10-18T03:13:36.836Z,7.85
2022-10-18T03:16:04.644Z,8.10
2022-10-18T03:18:32.264Z,8.27
2022-10-18T03:21:05.049Z,9.00
2022-10-18T03:23:32.858Z,8.00
2022-10-18T03:26:00.494Z,9.30
2022-10-18T03:28:28.280Z,8.55
2022-10-18T03:31:01.184Z,8.00
2022-10-18T03:33:28.909Z,8.82
2022-10-18T03:35:56.540Z,9.07
2022-10-18T03:38:25.650Z,8.45
2022-10-18T03:40:53.308Z,9.43
2022-10-18T03:43:20.998Z,8.48
2022-10-18T03:45:48.889Z,8.50
2022-10-18T03:48:16.636Z,9.30
2022-10-18T03:50:44.791Z,8.43
2022-10-18T03:53:12.454Z,7.68
2022-10-18T03:55:41.461Z,8.38
2022-10-18T03:58:09.297Z,10.45
2022-10-18T04:00:37.261Z,9.02
2022-10-18T04:03:04.991Z,9.55
2022-10-18T04:05:32.621Z,9.13
2022-10-18T04:08:00.271Z,9.75
2022-10-18T04:10:27.907Z,10.13
2022-10-18T04:12:56.850Z,8.68
2022-10-18T04:15:24.496Z,9.73
2022-10-18T04:17:52.112Z,10.18
2022-10-18T04:20:19.968Z,9.85
2022-10-18T04:22:49.189Z,10.48
2022-10-18T04:25:17.164Z,10.05
2022-10-18T04:27:45.138Z,9.85
2022-10-18T04:30:14.810Z,10.85
2022-10-18T04:32:42.641Z,9.20
2022-10-18T04:35:11.119Z,10.30
2022-10-18T04:37:38.779Z,8.13
2022-10-18T04:40:07.652Z,9.88
2022-10-18T04:42:35.326Z,9.93
2022-10-18T04:45:02.999Z,9.80
2022-10-18T04:47:32.272Z,10.57
2022-10-18T04:50:00.157Z,9.27
2022-10-18T04:52:27.918Z,10.10
2022-10-18T04:54:55.622Z,9.75
2022-10-18T04:57:23.390Z,9.93
2022-10-18T04:59:51.019Z,10.80
2022-10-18T05:02:18.665Z,9.88
2022-10-18T05:04:47.688Z,10.65
2022-10-18T05:07:15.265Z,11.23
2022-10-18T05:09:43.027Z,10.15
2022-10-18T05:12:10.861Z,9.68
2022-10-18T05:14:38.542Z,10.60
2022-10-18T05:17:06.219Z,10.40
2022-10-18T05:19:33.907Z,10.25
2022-10-18T05:22:02.897Z,11.13
2022-10-18T05:24:30.576Z,9.88
2022-10-18T05:26:58.451Z,10.57
2022-10-18T05:31:59.008Z,10.52
2022-10-18T05:34:27.317Z,11.63
2022-10-18T05:36:55.110Z,11.00
2022-10-18T05:39:24.455Z,11.10
2022-10-18T05:41:52.179Z,13.35
2022-10-18T05:44:20.074Z,12.38
2022-10-18T05:46:47.733Z,13.95
2022-10-18T05:49:15.874Z,12.25
2022-10-18T05:51:43.596Z,11.77
2022-10-18T05:54:12.691Z,11.15
2022-10-18T05:56:41.798Z,11.50
2022-10-18T05:59:12.260Z,10.82
2022-10-18T06:01:42.019Z,9.95
2022-10-18T06:04:11.093Z,11.77
2022-10-18T06:06:39.730Z,10.50
2022-10-18T06:09:08.661Z,10.90
2022-10-18T06:11:37.671Z,10.40
2022-10-18T06:14:08.749Z,12.48
2022-10-18T06:19:05.259Z,9.77
2022-10-18T06:21:32.940Z,12.48
2022-10-18T06:24:00.796Z,12.38
2022-10-18T06:26:29.058Z,10.90
2022-10-18T06:28:56.834Z,11.52
2022-10-18T06:31:25.969Z,12.40
2022-10-18T06:33:53.767Z,9.85
2022-10-18T06:36:23.079Z,11.70
2022-10-18T06:38:51.640Z,11.45
2022-10-18T06:41:20.398Z,12.10
2022-10-18T06:43:49.520Z,12.13
2022-10-18T06:46:17.598Z,11.55
2022-10-18T06:48:46.856Z,12.20
2022-10-18T06:51:15.212Z,11.57
2022-10-18T06:53:53.418Z,12.25
2022-10-18T06:56:31.187Z,11.00
2022-10-18T07:01:31.742Z,11.77
2022-10-18T07:04:00.792Z,13.32
2022-10-18T07:06:28.618Z,11.82
2022-10-18T07:08:56.985Z,11.30
2022-10-18T07:11:26.769Z,11.55
2022-10-18T07:14:00.285Z,11.68
2022-10-18T07:16:28.131Z,12.27
2022-10-18T07:18:56.291Z,12.63
2022-10-18T07:21:27.189Z,11.75
2022-10-18T07:23:55.141Z,13.68
2022-10-18T07:26:25.162Z,12.45
2022-10-18T07:28:55.878Z,12.35
2022-10-18T07:31:23.745Z,12.55
2022-10-18T07:33:51.535Z,11.52
2022-10-18T07:36:21.055Z,10.70
2022-10-18T07:38:51.820Z,12.25
2022-10-18T07:41:20.191Z,11.95
2022-10-18T07:43:50.694Z,12.20
2022-10-18T07:46:19.964Z,11.18
2022-10-18T07:48:48.332Z,13.27
2022-10-18T07:51:16.683Z,11.07
2022-10-18T07:53:44.360Z,12.07
2022-10-18T07:56:16.838Z,11.88
2022-10-18T07:58:45.084Z,11.95
2022-10-18T08:01:13.305Z,11.18
2022-10-18T08:03:42.858Z,12.63
2022-10-18T08:06:12.753Z,12.73
2022-10-18T08:08:41.759Z,12.63
2022-10-18T08:11:12.146Z,13.63
2022-10-18T08:13:41.302Z,13.93
2022-10-18T08:16:11.156Z,12.90
2022-10-18T08:18:39.512Z,13.80
2022-10-18T08:21:09.487Z,13.90
2022-10-18T08:23:37.721Z,13.32
2022-10-18T08:26:08.276Z,12.30
2022-10-18T08:28:36.806Z,11.07
2022-10-18T08:31:07.801Z,12.23
2022-10-18T08:33:36.199Z,11.25
2022-10-18T08:36:05.944Z,11.63
2022-10-18T08:38:34.932Z,12.60
2022-10-18T08:41:15.822Z,11.20
2022-10-18T08:43:49.968Z,10.20
2022-10-18T08:46:19.102Z,10.82
2022-10-18T08:48:49.481Z,9.60
2022-10-18T08:51:28.047Z,9.95
2022-10-18T08:54:04.764Z,10.55
2022-10-18T08:56:34.923Z,9.90
2022-10-18T08:59:04.400Z,10.48
2022-10-18T09:01:43.095Z,9.90
2022-10-18T09:04:25.291Z,10.20
2022-10-18T09:07:07.050Z,10.73
2022-10-18T09:09:43.633Z,10.27
2022-10-18T09:12:27.866Z,10.70
2022-10-18T09:15:13.662Z,10.27
2022-10-18T09:17:55.082Z,8.85
2022-10-18T09:20:25.355Z,10.30
2022-10-18T09:22:55.858Z,10.15
2022-10-18T09:25:25.944Z,11.25
2022-10-18T09:28:02.336Z,11.70
2022-10-18T09:30:44.637Z,10.07
2022-10-18T09:33:29.733Z,10.38
2022-10-18T09:35:59.811Z,10.65
2022-10-18T09:38:32.825Z,11.20
2022-10-18T09:41:05.413Z,9.93
2022-10-18T09:43:55.486Z,10.55
2022-10-18T09:46:27.672Z,9.57
2022-10-18T09:49:01.259Z,10.88
2022-10-18T09:51:34.650Z,11.00
2022-10-18T09:54:21.476Z,10.20
2022-10-18T09:56:52.030Z,9.52
2022-10-18T09:59:32.628Z,8.93
2022-10-18T10:02:00.789Z,10.45
2022-10-18T10:04:29.993Z,10.68
2022-10-18T10:07:01.148Z,8.73
2022-10-18T10:09:30.777Z,9.35
2022-10-18T10:11:59.352Z,9.75
2022-10-18T10:14:28.687Z,9.85
2022-10-18T10:16:58.485Z,8.35
2022-10-18T10:19:32.696Z,8.95
2022-10-18T10:22:05.046Z,8.98
2022-10-18T10:24:44.052Z,9.98
2022-10-18T10:27:19.202Z,7.60
2022-10-18T10:30:01.521Z,8.05
2022-10-18T10:32:45.142Z,8.40
2022-10-18T10:35:33.985Z,7.88
2022-10-18T10:38:24.882Z,7.18
2022-10-18T10:40:53.125Z,7.75
2022-10-18T10:43:36.986Z,7.40
2022-10-18T10:46:09.552Z,6.90
2022-10-18T10:48:46.346Z,7.50
2022-10-18T10:51:18.155Z,7.57
2022-10-18T10:53:52.141Z,6.63
2022-10-18T10:56:25.373Z,6.45
2022-10-18T10:58:54.746Z,6.82
2022-10-18T11:01:27.993Z,6.20
2022-10-18T11:03:57.757Z,7.85
2022-10-18T11:06:48.888Z,5.95
2022-10-18T11:09:27.604Z,6.45
2022-10-18T11:12:05.068Z,6.22
2022-10-18T11:14:38.399Z,5.90
2022-10-18T11:17:16.441Z,6.38
2022-10-18T11:19:55.866Z,6.90
2022-10-18T11:22:27.344Z,5.10
2022-10-18T11:24:55.138Z,5.05
2022-10-18T11:27:28.439Z,4.38
2022-10-18T11:30:15.680Z,5.22
2022-10-18T11:32:50.547Z,4.68
2022-10-18T11:35:32.604Z,4.63
2022-10-18T11:38:15.096Z,3.50
2022-10-18T11:40:55.619Z,4.70
2022-10-18T11:43:38.998Z,5.40
2022-10-18T11:46:23.914Z,4.20
2022-10-18T11:49:06.819Z,5.38
2022-10-18T11:52:06.723Z,5.10
2022-10-18T11:54:48.292Z,4.78
2022-10-18T11:57:33.640Z,3.53
2022-10-18T12:00:17.394Z,4.15
2022-10-18T12:03:02.102Z,3.20
2022-10-18T12:05:31.250Z,3.42
2022-10-18T12:08:04.085Z,3.67
2022-10-18T12:10:46.163Z,3.78
2022-10-18T12:13:28.904Z,3.50
2022-10-18T12:15:56.832Z,3.03
2022-10-18T12:18:26.754Z,2.97
2022-10-18T12:20:56.557Z,2.67
2022-10-18T12:23:37.403Z,3.17
2022-10-18T12:26:08.413Z,2.92
2022-10-18T12:28:46.909Z,3.42
2022-10-18T12:31:23.410Z,2.40
2022-10-18T12:33:55.481Z,2.03
2022-10-18T12:36:49.090Z,2.90
2022-10-18T12:39:32.306Z,2.88
2022-10-18T12:42:20.785Z,2.67
2022-10-18T12:44:48.874Z,2.88
2022-10-18T12:47:24.509Z,2.03
2022-10-18T12:50:00.502Z,2.38
2022-10-18T12:52:31.844Z,1.77
2022-10-18T12:55:28.109Z,1.70
2022-10-18T12:58:22.619Z,1.77
2022-10-18T13:01:05.744Z,2.03
2022-10-18T13:03:44.055Z,1.95
2022-10-18T13:06:11.777Z,1.42
2022-10-18T13:08:45.779Z,1.88
2022-10-18T13:11:31.018Z,2.17
2022-10-18T13:14:25.037Z,1.17
2022-10-18T13:16:59.485Z,1.90
2022-10-18T13:19:36.955Z,1.20
2022-10-18T13:22:24.662Z,1.80
2022-10-18T13:25:03.522Z,1.60
2022-10-18T13:27:39.303Z,1.58
2022-10-18T13:30:23.931Z,1.50
2022-10-18T13:32:59.740Z,1.73
2022-10-18T13:35:48.815Z,1.60
2022-10-18T13:38:40.765Z,1.75
2022-10-18T13:41:10.934Z,1.95
2022-10-18T13:44:10.311Z,2.53
2022-10-18T13:47:20.490Z,2.10
2022-10-18T13:50:25.762Z,1.90
2022-10-18T13:53:28.699Z,1.83
2022-10-18T13:59:15.874Z,2.15
2022-10-18T14:01:58.701Z,2.08
2022-10-18T14:04:48.196Z,2.00
2022-10-18T14:07:19.533Z,1.73
2022-10-18T14:09:54.979Z,1.80
2022-10-18T14:12:30.097Z,1.52
2022-10-18T14:15:06.254Z,1.20
2022-10-18T14:17:40.803Z,1.35
2022-10-18T14:20:19.700Z,1.08
2022-10-18T14:22:52.385Z,1.75
2022-10-18T14:25:27.464Z,1.38
2022-10-18T14:28:10.025Z,1.10
2022-10-18T14:30:53.121Z,1.83
2022-10-18T14:33:35.329Z,1.50
2022-10-18T14:36:10.425Z,0.80
2022-10-18T14:38:49.758Z,0.95
2022-10-18T14:41:21.367Z,1.52
2022-10-18T14:43:49.840Z,1.08
2022-10-18T14:46:21.968Z,0.88
2022-10-18T14:48:56.946Z,0.90
2022-10-18T14:51:25.877Z,0.82
2022-10-18T14:53:55.818Z,1.08
2022-10-18T14:56:27.361Z,1.08
2022-10-18T14:58:56.569Z,0.63
2022-10-18T15:01:28.032Z,0.85
2022-10-18T15:04:01.546Z,0.82
2022-10-18T15:06:29.295Z,0.70
2022-10-18T15:08:59.909Z,1.63
2022-10-18T15:11:28.383Z,1.77
2022-10-18T15:13:58.707Z,0.82
2022-10-18T15:16:29.288Z,1.75
2022-10-18T15:19:01.638Z,0.88
2022-10-18T15:24:24.447Z,1.20
2022-10-18T15:26:53.594Z,1.10
2022-10-18T15:29:24.746Z,1.13
2022-10-18T15:31:53.513Z,1.38
2022-10-18T15:34:24.388Z,1.80
2022-10-18T15:36:53.943Z,1.13
2022-10-18T15:39:24.886Z,2.20
2022-10-18T15:41:53.725Z,1.27
2022-10-18T15:44:26.800Z,2.17
2022-10-18T15:46:57.197Z,1.65
2022-10-18T15:50:01.516Z,2.42
2022-10-18T15:52:50.147Z,3.55
2022-10-18T15:55:47.466Z,1.98
2022-10-18T15:58:20.645Z,1.98
2022-10-18T16:00:49.824Z,2.13
2022-10-18T16:03:19.653Z,2.38
2022-10-18T16:05:47.715Z,1.88
2022-10-18T16:08:23.900Z,2.42
2022-10-18T16:10:53.370Z,2.30
2022-10-18T16:13:21.424Z,1.63
2022-10-18T16:15:49.931Z,1.10
2022-10-18T16:18:21.173Z,2.28
2022-10-18T16:20:49.604Z,1.63
2022-10-18T16:23:27.293Z,1.80
2022-10-18T16:25:57.633Z,2.00
2022-10-18T16:28:31.755Z,2.17
2022-10-18T16:31:08.448Z,2.05
2022-10-18T16:33:44.830Z,1.55
2022-10-18T16:36:17.778Z,1.58
2022-10-18T16:42:06.880Z,1.92
2022-10-18T16:44:48.235Z,2.13
2022-10-18T16:47:33.081Z,1.63
2022-10-18T16:50:28.418Z,1.33
2022-10-18T16:53:30.160Z,2.67
2022-10-18T16:56:09.960Z,2.75
2022-10-18T16:59:12.488Z,2.15
2022-10-18T17:02:12.237Z,1.83
2022-10-18T17:04:55.940Z,1.73
2022-10-18T17:11:02.965Z,1.50
2022-10-18T17:13:31.376Z,2.80
2022-10-18T17:16:07.229Z,1.50
2022-10-18T17:18:35.552Z,2.08
2022-10-18T17:21:05.659Z,2.10
2022-10-18T17:23:35.213Z,2.10
2022-10-18T17:26:21.914Z,2.63
2022-10-18T17:28:51.897Z,2.78
2022-10-18T17:31:24.344Z,3.30
2022-10-18T17:33:54.477Z,3.88
2022-10-18T17:36:23.237Z,2.83
2022-10-18T17:38:51.695Z,3.75
2022-10-18T17:41:20.202Z,2.97
2022-10-18T17:43:51.566Z,3.15
2022-10-18T17:46:20.434Z,2.80
2022-10-18T17:48:57.485Z,2.47
2022-10-18T17:51:26.496Z,2.22
2022-10-18T17:53:55.164Z,2.83
2022-10-18T17:56:41.205Z,2.58
2022-10-18T17:59:12.548Z,2.63
2022-10-18T18:01:40.724Z,2.90
2022-10-18T18:04:11.180Z,4.32
2022-10-18T18:06:39.555Z,6.53
2022-10-18T18:09:08.961Z,6.97
2022-10-18T18:11:38.440Z,6.82
2022-10-18T18:14:09.066Z,5.85
2022-10-18T18:16:38.380Z,4.43
2022-10-18T18:19:09.848Z,5.60
2022-10-18T18:21:41.967Z,3.47
2022-10-18T18:24:10.763Z,2.75
2022-10-18T18:26:40.615Z,3.47
2022-10-18T18:29:14.516Z,2.70
2022-10-18T18:31:43.748Z,2.50
2022-10-18T18:34:12.231Z,2.90
2022-10-18T18:36:41.673Z,2.58
2022-10-18T18:39:19.572Z,3.42
2022-10-18T18:41:48.936Z,4.25
2022-10-18T18:44:16.843Z,2.42
2022-10-18T18:46:44.618Z,4.57
2022-10-18T18:49:13.170Z,3.28
2022-10-18T18:51:44.640Z,2.53
2022-10-18T18:54:14.646Z,3.90
2022-10-18T18:56:43.179Z,4.20
2022-10-18T18:59:13.864Z,4.60
2022-10-18T19:01:42.152Z,3.30
2022-10-18T19:04:10.644Z,2.92
2022-10-18T19:06:40.864Z,4.53
2022-10-18T19:09:19.148Z,3.15
2022-10-18T19:11:52.248Z,2.33
2022-10-18T19:14:23.531Z,3.00
2022-10-18T19:16:53.335Z,2.90
2022-10-18T19:19:23.209Z,2.75
2022-10-18T19:21:58.086Z,2.20
2022-10-18T19:24:30.078Z,2.00
2022-10-18T19:27:00.337Z,2.83
2022-10-18T19:29:31.767Z,1.95
2022-10-18T19:32:01.363Z,1.90
2022-10-18T19:34:31.465Z,2.20
2022-10-18T19:37:02.308Z,2.63
2022-10-18T19:39:43.193Z,2.67
2022-10-18T19:42:18.598Z,1.90
2022-10-18T19:47:38.374Z,3.35
2022-10-18T19:50:21.126Z,2.38
2022-10-18T19:52:53.424Z,3.05
2022-10-18T19:55:33.906Z,1.98
2022-10-18T19:58:12.913Z,2.47
2022-10-18T20:00:53.880Z,2.40
2022-10-18T20:03:32.477Z,2.80
2022-10-18T20:09:30.706Z,2.28
2022-10-18T20:15:52.107Z,1.70
2022-10-18T20:18:20.905Z,2.28
2022-10-18T20:20:49.605Z,2.00
2022-10-18T20:23:18.423Z,2.47
2022-10-18T20:25:56.573Z,3.53
2022-10-18T20:28:25.152Z,2.45
2022-10-18T20:31:06.271Z,2.28
2022-10-18T20:33:35.051Z,2.25
2022-10-18T20:36:04.253Z,2.85
2022-10-18T20:38:33.106Z,1.75
2022-10-18T20:41:05.692Z,1.65
2022-10-18T20:43:33.445Z,1.52
2022-10-18T20:46:01.652Z,1.75
2022-10-18T20:48:31.963Z,1.70
2022-10-18T20:51:04.106Z,1.50
2022-10-18T20:53:31.804Z,1.77
2022-10-18T20:56:03.828Z,1.80
2022-10-18T20:58:31.596Z,1.55
2022-10-18T21:01:06.219Z,1.55
2022-10-18T21:03:37.739Z,1.13
2022-10-18T21:06:13.111Z,1.10
2022-10-18T21:08:40.982Z,1.55
2022-10-18T21:11:09.417Z,1.25
2022-10-18T21:13:37.346Z,1.45
2022-10-18T21:16:06.474Z,1.42
2022-10-18T21:18:37.523Z,1.90
2022-10-18T21:21:10.542Z,1.83
2022-10-18T21:23:38.625Z,2.00
2022-10-18T21:26:07.248Z,1.65
2022-10-18T21:28:35.589Z,1.55
2022-10-18T21:31:14.471Z,1.58
2022-10-18T21:33:44.227Z,1.50
2022-10-18T21:36:12.083Z,1.92
2022-10-18T21:38:40.266Z,1.38
2022-10-18T21:41:11.839Z,2.00
2022-10-18T21:43:41.293Z,1.55
2022-10-18T21:46:10.879Z,1.80
2022-10-18T21:48:39.615Z,1.65
2022-10-18T21:51:09.482Z,1.58
2022-10-18T21:53:37.971Z,1.60
2022-10-18T21:56:07.351Z,2.00
2022-10-18T21:58:35.782Z,2.42
2022-10-18T22:01:07.207Z,1.70
2022-10-18T22:03:34.962Z,2.13
2022-10-18T22:06:07.264Z,1.30
2022-10-18T22:08:36.290Z,2.47
2022-10-18T22:11:04.322Z,1.85
2022-10-18T22:13:32.019Z,1.35
2022-10-18T22:16:01.655Z,2.15
2022-10-18T22:18:30.177Z,1.33
2022-10-18T22:20:59.589Z,1.70
2022-10-18T22:23:32.067Z,1.33
2022-10-18T22:26:05.179Z,1.70
2022-10-18T22:28:32.929Z,1.77
2022-10-18T22:31:03.270Z,1.08
2022-10-18T22:33:30.949Z,1.30
2022-10-18T22:35:58.589Z,1.08
2022-10-18T22:38:26.266Z,1.45
2022-10-18T22:40:53.921Z,1.50
2022-10-18T22:43:22.892Z,1.65
2022-10-18T22:45:50.571Z,1.25
2022-10-18T22:48:18.208Z,1.50
2022-10-18T22:50:45.852Z,1.20
2022-10-18T22:53:13.450Z,1.42
2022-10-18T22:55:41.080Z,1.20
2022-10-18T22:58:08.780Z,1.13
2022-10-18T23:00:39.817Z,1.30
2022-10-18T23:03:07.419Z,1.10
2022-10-18T23:05:38.101Z,1.10
2022-10-18T23:08:05.952Z,0.90
2022-10-18T23:10:38.386Z,1.00
2022-10-18T23:13:06.580Z,0.75
2022-10-18T23:15:34.250Z,1.10
2022-10-18T23:18:03.274Z,0.60
2022-10-18T23:20:30.973Z,1.15
2022-10-18T23:22:58.648Z,0.80
2022-10-18T23:25:27.165Z,1.00
2022-10-18T23:27:54.929Z,1.27
2022-10-18T23:30:22.762Z,1.10
2022-10-18T23:32:50.419Z,0.90
2022-10-18T23:35:19.410Z,1.27
2022-10-18T23:37:47.087Z,1.10
2022-10-18T23:40:14.848Z,0.90
2022-10-18T23:42:42.547Z,1.10
2022-10-18T23:45:11.049Z,1.10
2022-10-18T23:47:38.747Z,1.48
2022-10-18T23:50:07.196Z,1.20
2022-10-18T23:52:36.236Z,2.47
2022-10-18T23:55:04.334Z,1.25
2022-10-18T23:57:32.228Z,1.35
